Time;durP1;ratioP1;P1;durP2;ratioP2;P2;SDS_P1;SDS_P2;PMS_P1;PMS_P2;Temp;Humidity;BMP_temperature;BMP_pressure;BME280_temperature;BME280_humidity;BME280_pressure;Samples;Min_cycle;Max_cycle;Signal;HPM_P1;HPM_P2
2022/12/14 00:01:38;;;;;;;23.65;13.50;;;;;;;;;;5098970;28;20228;-85
2022/12/14 00:04:38;;;;;;;29.05;14.77;;;-4.30;1.00;;;;;;5105392;28;20229;-86
2022/12/14 00:07:24;;;;;;;29.33;15.18;;;;;;;;;;5063398;28;20201;-86
2022/12/14 00:09:54;;;;;;;33.53;15.40;;;;;;;;;;5102237;28;20205;-86
2022/12/14 00:12:44;;;;;;;32.30;16.27;;;;;;;;;;5100830;28;20206;-87
2022/12/14 00:18:40;;;;;;;26.35;14.35;;;-4.30;16.80;;;;;;5094005;28;20288;-85
2022/12/14 00:21:24;;;;;;;28.77;15.90;;;-4.30;31.20;;;;;;5044798;28;20511;-86
2022/12/14 00:36:31;;;;;;;30.80;18.98;;;-4.40;99.90;;;;;;5099258;28;20198;-85
2022/12/14 00:39:16;;;;;;;37.50;18.33;;;;;;;;;;5074759;28;20210;-86
2022/12/14 00:41:51;;;;;;;31.08;16.90;;;;;;;;;;5097734;28;20229;-86
2022/12/14 00:51:06;;;;;;;34.90;18.67;;;-4.70;99.90;;;;;;5103414;28;20648;-85
2022/12/14 00:53:42;;;;;;;33.45;18.27;;;;;;;;;;5115559;28;20279;-86
2022/12/14 00:56:35;;;;;;;33.15;18.40;;;;;;;;;;5116417;28;20224;-86
2022/12/14 00:59:36;;;;;;;35.60;18.15;;;;;;;;;;5118450;28;20185;-85
2022/12/14 01:10:59;;;;;;;30.60;16.45;;;;;;;;;;5107480;28;20202;-85
2022/12/14 01:13:40;;;;;;;29.75;15.75;;;;;;;;;;5096706;28;20229;-85
2022/12/14 01:16:12;;;;;;;32.33;17.33;;;-4.90;99.90;;;;;;5097014;28;20233;-85
2022/12/14 01:18:43;;;;;;;33.22;19.42;;;-5.00;99.90;;;;;;5096287;28;20209;-85
2022/12/14 01:21:11;;;;;;;25.60;16.38;;;;;;;;;;5099833;28;20198;-85
2022/12/14 01:23:45;;;;;;;29.58;15.60;;;;;;;;;;5098813;28;20283;-85
2022/12/14 01:26:14;;;;;;;33.30;17.23;;;;;;;;;;5105382;28;20188;-85
2022/12/14 01:28:56;;;;;;;29.67;18.27;;;;;;;;;;5107744;28;20209;-85
2022/12/14 01:31:24;;;;;;;28.60;17.77;;;-5.00;99.90;;;;;;5105767;28;20304;-86
2022/12/14 01:33:52;;;;;;;34.92;19.75;;;;;;;;;;5102618;28;20249;-86
2022/12/14 01:36:23;;;;;;;37.17;18.50;;;;;;;;;;5100078;28;20209;-86
2022/12/14 01:38:59;;;;;;;30.73;18.05;;;;;;;;;;5099654;28;20212;-86
2022/12/14 01:41:44;;;;;;;29.65;17.58;;;-5.00;99.90;;;;;;5098286;28;20244;-86
2022/12/14 01:44:56;;;;;;;30.02;17.52;;;-5.00;99.90;;;;;;5097658;28;20226;-86
2022/12/14 01:47:45;;;;;;;28.33;16.80;;;-5.00;99.90;;;;;;5099082;28;20218;-86
2022/12/14 01:50:23;;;;;;;25.15;16.55;;;-5.10;99.90;;;;;;5098875;28;20641;-85
2022/12/14 01:53:02;;;;;;;31.73;17.00;;;-5.00;99.90;;;;;;5098726;28;20201;-85
2022/12/14 01:55:44;;;;;;;24.60;14.88;;;-5.10;99.90;;;;;;5098939;28;20186;-85
2022/12/14 02:23:22;;;;;;;23.95;15.95;;;-5.30;99.90;;;;;;4911198;29;20212;-85
2022/12/14 02:29:56;;;;;;;29.92;16.15;;;-5.30;99.90;;;;;;4987540;28;20244;-85
2022/12/14 02:33:09;;;;;;;29.80;16.63;;;-5.30;99.90;;;;;;5026839;28;20208;-86
2022/12/14 02:35:50;;;;;;;25.83;15.57;;;-5.40;99.90;;;;;;5025482;28;20219;-86
2022/12/14 02:38:54;;;;;;;26.38;15.73;;;-5.30;99.90;;;;;;5071557;28;20206;-86
2022/12/14 02:41:50;;;;;;;22.88;14.30;;;-5.30;99.90;;;;;;5115577;28;20197;-85
2022/12/14 02:44:35;;;;;;;21.20;14.30;;;-5.30;99.90;;;;;;5112232;28;20225;-85
2022/12/14 02:47:58;;;;;;;;;;;;;;;;;;;;;
2022/12/14 02:51:18;;;;;;;;;;;;;;;;;;;;;
2022/12/14 02:54:46;;;;;;;28.73;17.55;;;-5.50;99.90;;;;;;4971609;29;20234;-85
2022/12/14 02:58:08;;;;;;;28.65;15.00;;;-5.40;99.90;;;;;;4974603;29;20292;-85
2022/12/14 03:01:07;;;;;;;;;;;;;;;;;;;;;
2022/12/14 03:13:43;;;;;;;25.45;14.63;;;-5.60;99.90;;;;;;5033797;28;20212;-86
2022/12/14 03:16:39;;;;;;;26.88;14.80;;;;;;;;;;5110567;28;20310;-85
2022/12/14 03:19:51;;;;;;;25.95;15.05;;;-5.50;99.90;;;;;;5081263;28;20269;-85
2022/12/14 03:28:33;;;;;;;31.63;16.50;;;-5.50;99.90;;;;;;5103478;28;20204;-85
2022/12/14 03:31:32;;;;;;;26.52;14.57;;;-5.60;99.90;;;;;;5101085;28;20214;-86
2022/12/14 03:37:36;;;;;;;26.83;16.17;;;-5.60;99.90;;;;;;5097435;28;20793;-86
2022/12/14 03:40:08;;;;;;;21.27;14.35;;;;;;;;;;5102863;28;20217;-86
2022/12/14 03:43:00;;;;;;;27.50;14.48;;;;;;;;;;5101728;28;20198;-86
2022/12/14 03:46:02;;;;;;;29.92;14.65;;;-5.80;99.90;;;;;;5104096;28;20276;-86
2022/12/14 03:48:52;;;;;;;23.67;14.20;;;-5.80;99.90;;;;;;5094921;28;20667;-86
2022/12/14 03:51:54;;;;;;;22.40;14.02;;;-5.80;99.90;;;;;;5107055;28;20225;-86
2022/12/14 04:01:20;;;;;;;29.48;17.00;;;;;;;;;;5099307;28;20205;-86
2022/12/14 04:03:53;;;;;;;24.77;12.20;;;-5.90;99.90;;;;;;5124341;22;20308;-83
2022/12/14 04:06:31;;;;;;;27.30;14.57;;;-5.80;99.90;;;;;;5106263;28;20269;-83
2022/12/14 04:09:08;;;;;;;28.42;14.82;;;-5.90;99.90;;;;;;5105848;28;20218;-82
2022/12/14 04:20:10;;;;;;;32.70;14.57;;;-6.20;99.90;;;;;;5080658;28;20618;-84
2022/12/14 04:22:41;;;;;;;29.05;15.93;;;-6.10;1.00;;;;;;5107463;28;20225;-85
2022/12/14 04:28:05;;;;;;;30.55;15.25;;;-6.10;1.00;;;;;;5117096;28;20188;-82
2022/12/14 04:30:37;;;;;;;19.70;13.77;;;-6.10;99.90;;;;;;5119899;28;20217;-83
2022/12/14 04:35:51;;;;;;;28.05;15.02;;;-6.20;1.00;;;;;;5113253;28;20295;-84
2022/12/14 04:38:22;;;;;;;24.05;13.52;;;-6.00;99.90;;;;;;5109723;28;20193;-83
2022/12/14 04:40:55;;;;;;;27.75;13.43;;;-6.00;99.90;;;;;;5105840;28;20210;-83
2022/12/14 04:43:26;;;;;;;26.65;14.13;;;-5.30;99.90;;;;;;5105457;28;20704;-83
2022/12/14 04:45:58;;;;;;;21.88;13.60;;;-6.20;99.90;;;;;;5106147;28;20692;-84
2022/12/14 04:48:30;;;;;;;31.58;19.35;;;-6.10;99.90;;;;;;5112534;28;20420;-83
2022/12/14 04:51:05;;;;;;;31.58;17.10;;;-6.10;99.90;;;;;;5118024;28;20209;-82
2022/12/14 04:53:35;;;;;;;27.65;15.52;;;-6.20;99.90;;;;;;5105281;28;20185;-83
2022/12/14 04:56:09;;;;;;;28.23;15.18;;;-6.20;1.00;;;;;;5105101;28;20205;-83
2022/12/14 04:58:37;;;;;;;26.50;14.45;;;-6.20;99.90;;;;;;5105303;28;20190;-84
2022/12/14 05:01:22;;;;;;;26.10;14.57;;;-6.10;1.00;;;;;;5104882;28;20288;-83
2022/12/14 05:03:54;;;;;;;31.00;16.23;;;-6.30;99.90;;;;;;5101440;28;20251;-83
2022/12/14 05:06:26;;;;;;;23.95;15.57;;;-6.10;99.90;;;;;;5099561;28;20212;-83
2022/12/14 05:09:09;;;;;;;18.27;13.60;;;-6.50;99.90;;;;;;5100297;28;20285;-83
2022/12/14 05:11:43;;;;;;;24.48;16.02;;;-6.10;99.90;;;;;;5100947;28;20285;-84
2022/12/14 05:14:17;;;;;;;25.42;16.00;;;-6.10;1.00;;;;;;5102084;28;20264;-83
2022/12/14 05:16:44;;;;;;;38.13;20.05;;;-6.20;1.00;;;;;;5104065;28;20255;-84
2022/12/14 05:19:11;;;;;;;28.98;16.58;;;-6.10;99.90;;;;;;5109724;28;20209;-84
2022/12/14 05:21:46;;;;;;;24.40;15.60;;;-6.00;1.00;;;;;;5103592;28;20636;-84
2022/12/14 05:24:14;;;;;;;28.30;16.42;;;-6.00;99.90;;;;;;5100298;28;20316;-84
2022/12/14 05:26:42;;;;;;;28.80;15.80;;;-6.10;99.90;;;;;;5101719;28;20292;-84
2022/12/14 05:29:09;;;;;;;38.30;19.75;;;-6.10;99.90;;;;;;5100320;28;20288;-84
2022/12/14 05:31:36;;;;;;;25.17;14.85;;;;;;;;;;5102013;28;20229;-84
2022/12/14 05:34:04;;;;;;;27.55;16.88;;;;;;;;;;5101652;28;20225;-83
2022/12/14 05:36:31;;;;;;;22.00;15.25;;;;;;;;;;5104264;28;20668;-83
2022/12/14 05:38:58;;;;;;;24.98;15.43;;;;;;;;;;5112013;28;20249;-84
2022/12/14 05:41:25;;;;;;;28.30;16.90;;;;;;;;;;5112429;28;20213;-83
2022/12/14 05:43:54;;;;;;;29.02;16.10;;;-7.90;99.90;;;;;;5115916;28;20217;-82
2022/12/14 05:46:21;;;;;;;22.33;13.70;;;;;;;;;;5119435;28;20220;-82
2022/12/14 05:48:47;;;;;;;21.08;12.98;;;-6.30;99.90;;;;;;5118843;28;20218;-82
2022/12/14 05:51:14;;;;;;;21.88;13.68;;;-6.30;1.00;;;;;;5103258;28;20218;-83
2022/12/14 05:53:41;;;;;;;21.73;16.65;;;;;;;;;;5095764;28;20249;-83
2022/12/14 05:56:10;;;;;;;31.05;15.50;;;-6.30;99.90;;;;;;5097964;28;20208;-83
2022/12/14 05:58:37;;;;;;;33.45;16.13;;;;;;;;;;5097768;28;20209;-84
2022/12/14 06:01:07;;;;;;;22.45;12.90;;;-6.60;1.00;;;;;;5099747;28;20209;-83
2022/12/14 06:03:34;;;;;;;21.60;14.30;;;-6.20;99.90;;;;;;5099003;28;20186;-83
2022/12/14 06:06:02;;;;;;;36.47;21.48;;;-6.40;1.00;;;;;;5097273;28;20941;-83
2022/12/14 06:08:32;;;;;;;31.45;16.48;;;-6.50;1.00;;;;;;5098254;28;20205;-83
2022/12/14 06:11:02;;;;;;;35.83;16.38;;;-6.50;99.90;;;;;;5099017;28;20220;-84
2022/12/14 06:13:29;;;;;;;23.40;15.63;;;-6.10;99.90;;;;;;5099759;28;20228;-83
2022/12/14 06:16:08;;;;;;;31.00;18.67;;;-6.10;99.90;;;;;;5098285;28;20436;-83
2022/12/14 06:18:35;;;;;;;25.70;16.00;;;;;;;;;;5098872;28;20432;-82
2022/12/14 06:21:05;;;;;;;32.30;17.75;;;-6.20;99.90;;;;;;5099728;28;20194;-82
2022/12/14 06:23:32;;;;;;;28.48;16.45;;;-6.30;99.90;;;;;;5099629;28;20204;-82
2022/12/14 06:25:59;;;;;;;26.30;14.07;;;;;;;;;;5101240;28;20343;-82
2022/12/14 06:28:26;;;;;;;26.10;14.98;;;;;;;;;;5101605;28;20288;-83
2022/12/14 06:30:53;;;;;;;23.98;15.80;;;-6.00;99.90;;;;;;5101245;28;20224;-83
2022/12/14 06:33:21;;;;;;;24.00;12.95;;;-6.30;99.90;;;;;;5101152;28;20289;-82
2022/12/14 06:35:48;;;;;;;30.75;14.18;;;-6.40;99.90;;;;;;5098730;28;20205;-83
2022/12/14 06:38:17;;;;;;;22.23;13.98;;;-6.30;99.90;;;;;;5098382;28;20213;-83
2022/12/14 06:40:44;;;;;;;25.20;14.88;;;-6.20;99.90;;;;;;5104069;28;20205;-83
2022/12/14 06:43:11;;;;;;;31.55;14.60;;;;;;;;;;5106482;28;20206;-83
2022/12/14 06:45:38;;;;;;;25.60;15.25;;;-5.90;99.90;;;;;;5102200;28;20304;-83
2022/12/14 06:48:06;;;;;;;27.38;15.60;;;-6.10;99.90;;;;;;5102403;28;20202;-83
2022/12/14 06:50:34;;;;;;;28.75;14.55;;;-6.20;99.90;;;;;;5115750;28;20281;-84
2022/12/14 06:53:01;;;;;;;24.67;15.35;;;-6.20;99.90;;;;;;5113418;28;20261;-83
2022/12/14 06:55:29;;;;;;;23.85;15.27;;;;;;;;;;5105426;28;20267;-84
2022/12/14 06:57:56;;;;;;;30.20;13.98;;;;;;;;;;5106509;28;20202;-84
2022/12/14 07:00:24;;;;;;;27.15;14.50;;;-6.10;99.90;;;;;;5100710;28;20198;-84
2022/12/14 07:02:51;;;;;;;23.52;12.85;;;;;;;;;;5100495;28;20248;-84
2022/12/14 07:05:18;;;;;;;23.70;14.55;;;;;;;;;;5101347;28;20230;-83
2022/12/14 07:07:47;;;;;;;33.78;14.63;;;-6.20;99.90;;;;;;5114151;28;20232;-83
2022/12/14 07:10:14;;;;;;;27.40;15.30;;;;;;;;;;5118418;28;20206;-84
2022/12/14 07:12:41;;;;;;;27.30;14.75;;;-6.20;99.90;;;;;;5119137;28;20261;-84
2022/12/14 07:15:09;;;;;;;24.67;15.57;;;-6.30;99.90;;;;;;5114280;28;20355;-83
2022/12/14 07:17:36;;;;;;;21.92;14.15;;;-5.90;99.90;;;;;;5110902;28;20229;-83
2022/12/14 07:20:06;;;;;;;26.42;13.25;;;-6.10;99.90;;;;;;5115598;28;20236;-83
2022/12/14 07:22:34;;;;;;;28.55;16.77;;;;;;;;;;5120554;28;20200;-83
2022/12/14 07:25:02;;;;;;;26.83;15.30;;;-6.20;99.90;;;;;;5118608;28;20236;-83
2022/12/14 07:27:30;;;;;;;27.52;17.55;;;;;;;;;;5118585;28;20205;-83
2022/12/14 07:29:57;;;;;;;23.95;16.63;;;;;;;;;;5119830;28;20228;-83
2022/12/14 07:32:24;;;;;;;26.60;14.25;;;;;;;;;;5119502;28;20221;-83
2022/12/14 07:34:51;;;;;;;29.95;16.50;;;;;;;;;;5118201;28;20240;-83
2022/12/14 07:37:19;;;;;;;19.90;14.52;;;;;;;;;;5113117;28;20221;-81
2022/12/14 07:39:46;;;;;;;27.08;14.57;;;-6.20;99.90;;;;;;5109688;28;20212;-83
2022/12/14 07:42:14;;;;;;;27.92;14.25;;;-6.30;99.90;;;;;;5107426;28;20228;-84
2022/12/14 07:44:41;;;;;;;28.80;14.95;;;;;;;;;;5107437;28;20222;-83
2022/12/14 07:47:09;;;;;;;24.50;14.88;;;;;;;;;;5106892;28;20704;-83
2022/12/14 07:49:36;;;;;;;23.33;13.35;;;;;;;;;;5107145;28;20288;-82
2022/12/14 07:52:03;;;;;;;26.30;15.90;;;-6.10;99.90;;;;;;5107644;28;20309;-83
2022/12/14 07:54:30;;;;;;;24.23;15.75;;;-6.10;99.90;;;;;;5106776;28;20264;-82
2022/12/14 07:56:56;;;;;;;26.55;14.20;;;-6.50;99.90;;;;;;5106486;28;20206;-83
2022/12/14 07:59:25;;;;;;;28.25;14.43;;;-6.20;99.90;;;;;;5106513;28;20241;-82
2022/12/14 08:01:54;;;;;;;28.83;15.65;;;-6.00;99.90;;;;;;5104530;28;20194;-83
2022/12/14 08:04:21;;;;;;;21.35;13.82;;;;;;;;;;5107838;28;20570;-83
2022/12/14 08:06:48;;;;;;;23.50;14.02;;;-6.30;99.90;;;;;;5104619;28;20744;-83
2022/12/14 08:09:16;;;;;;;20.42;13.05;;;-5.70;99.90;;;;;;5107481;28;20209;-83
2022/12/14 08:11:44;;;;;;;18.00;13.07;;;;;;;;;;5109881;28;20247;-84
2022/12/14 08:14:13;;;;;;;22.92;13.95;;;-6.10;99.90;;;;;;5108034;28;20234;-83
2022/12/14 08:16:41;;;;;;;21.27;13.93;;;-6.00;99.90;;;;;;5106525;28;20224;-84
2022/12/14 08:19:08;;;;;;;19.02;12.73;;;;;;;;;;5108554;28;20202;-84
2022/12/14 08:21:44;;;;;;;24.88;14.90;;;-6.00;93.90;;;;;;5107761;28;20547;-84
2022/12/14 08:26:59;;;;;;;22.70;13.00;;;;;;;;;;5108555;28;20212;-84
2022/12/14 08:29:28;;;;;;;23.08;13.13;;;;;;;;;;5105959;28;20212;-84
2022/12/14 08:31:59;;;;;;;35.42;17.38;;;;;;;;;;5108013;28;20228;-83
2022/12/14 08:34:26;;;;;;;22.02;13.75;;;;;;;;;;5104971;28;20252;-84
2022/12/14 08:36:54;;;;;;;25.85;14.50;;;-5.70;99.90;;;;;;5105013;28;20686;-83
2022/12/14 08:39:21;;;;;;;27.65;15.52;;;-5.50;99.90;;;;;;5105512;28;20228;-84
2022/12/14 08:41:48;;;;;;;27.27;15.90;;;;;;;;;;5107443;28;20285;-83
2022/12/14 08:44:17;;;;;;;28.05;15.88;;;;;;;;;;5107009;28;20637;-84
2022/12/14 08:46:44;;;;;;;31.63;15.68;;;-5.70;99.90;;;;;;5106472;28;20639;-84
2022/12/14 08:49:12;;;;;;;29.98;16.52;;;-5.50;99.90;;;;;;5106765;28;20715;-85
2022/12/14 08:51:39;;;;;;;30.05;17.35;;;-5.50;99.90;;;;;;5116157;28;20225;-84
2022/12/14 08:54:06;;;;;;;23.00;14.93;;;;;;;;;;5119864;28;20221;-83
2022/12/14 08:56:33;;;;;;;29.98;15.77;;;-5.40;99.90;;;;;;5119010;28;20230;-84
2022/12/14 08:59:01;;;;;;;26.27;15.23;;;;;;;;;;5118547;28;20198;-84
2022/12/14 09:01:29;;;;;;;28.85;16.88;;;-4.50;99.90;;;;;;5118724;28;20205;-83
2022/12/14 09:03:56;;;;;;;29.27;15.90;;;;;;;;;;5118281;28;20229;-83
2022/12/14 09:06:26;;;;;;;27.90;15.38;;;-5.10;1.00;;;;;;5118662;28;20209;-83
2022/12/14 09:08:54;;;;;;;24.10;16.00;;;;;;;;;;5116610;28;20562;-84
2022/12/14 09:11:21;;;;;;;29.30;16.00;;;-5.10;1.00;;;;;;5110543;28;20256;-84
2022/12/14 09:13:48;;;;;;;23.23;14.80;;;-4.90;99.90;;;;;;5108327;28;20285;-84
2022/12/14 09:16:18;;;;;;;37.28;16.70;;;-5.00;8.60;;;;;;5109179;28;20241;-84
2022/12/14 09:18:44;;;;;;;25.55;16.48;;;-4.90;99.90;;;;;;5105897;28;20224;-83
2022/12/14 09:21:12;;;;;;;21.27;14.10;;;;;;;;;;5105485;28;20201;-84
2022/12/14 09:23:41;;;;;;;26.67;15.18;;;-4.90;49.30;;;;;;5105063;28;20261;-84
2022/12/14 09:26:10;;;;;;;34.40;17.02;;;-4.80;99.90;;;;;;5105317;28;20209;-84
2022/12/14 09:28:39;;;;;;;27.90;15.40;;;-4.80;37.70;;;;;;5104315;28;20220;-84
2022/12/14 09:31:08;;;;;;;32.08;16.50;;;-4.80;23.80;;;;;;5103503;28;20206;-84
2022/12/14 09:33:36;;;;;;;28.35;17.38;;;;;;;;;;5105169;28;20297;-84
2022/12/14 09:36:03;;;;;;;29.40;18.90;;;;;;;;;;5113753;28;20189;-83
2022/12/14 09:38:31;;;;;;;30.90;16.05;;;-4.30;99.90;;;;;;5115252;28;20210;-84
2022/12/14 09:41:02;;;;;;;27.45;16.58;;;-4.40;99.90;;;;;;5109826;28;20216;-84
2022/12/14 09:43:38;;;;;;;36.10;17.35;;;-4.30;99.90;;;;;;5105582;28;20220;-84
2022/12/14 09:46:17;;;;;;;32.10;15.65;;;-5.10;99.90;;;;;;5101297;28;20224;-83
2022/12/14 09:48:45;;;;;;;32.28;15.75;;;;;;;;;;5110831;28;20192;-83
2022/12/14 09:51:14;;;;;;;30.17;18.35;;;-4.50;1.00;;;;;;5115847;28;20229;-82
2022/12/14 09:53:43;;;;;;;25.98;16.25;;;-4.60;99.90;;;;;;5115787;28;20285;-83
2022/12/14 09:56:15;;;;;;;30.90;17.52;;;-4.10;29.20;;;;;;5117129;28;20216;-83
2022/12/14 09:58:51;;;;;;;27.40;16.45;;;-4.10;26.30;;;;;;5114584;28;20272;-84
2022/12/14 10:01:52;;;;;;;27.95;16.10;;;-4.40;99.90;;;;;;5105165;28;20245;-83
2022/12/14 10:04:42;;;;;;;32.58;16.00;;;;;;;;;;5108629;22;20217;-84
2022/12/14 10:07:33;;;;;;;25.08;15.95;;;-4.30;1.00;;;;;;5078190;28;20203;-84
2022/12/14 10:11:06;;;;;;;;;;;;;;;;;;;;;
2022/12/14 10:14:12;;;;;;;26.85;15.63;;;-4.10;1.00;;;;;;5076904;28;20257;-83
2022/12/14 10:16:53;;;;;;;23.98;15.68;;;-4.00;1.00;;;;;;5063805;28;20211;-82
2022/12/14 10:19:46;;;;;;;23.45;14.70;;;-3.90;1.00;;;;;;5073319;28;20198;-81
2022/12/14 10:22:55;;;;;;;29.33;15.80;;;-3.70;1.00;;;;;;5066566;28;20202;-83
2022/12/14 10:26:06;;;;;;;29.85;15.45;;;;;;;;;;5060390;28;20223;-83
2022/12/14 10:32:29;;;;;;;28.25;15.07;;;-3.60;1.00;;;;;;5037611;28;20583;-84
2022/12/14 10:35:13;;;;;;;29.98;15.88;;;-3.60;99.90;;;;;;5057011;28;20262;-83
2022/12/14 10:37:56;;;;;;;28.05;15.00;;;-3.70;99.90;;;;;;5064603;28;20280;-84
2022/12/14 10:40:33;;;;;;;22.88;14.20;;;-3.70;1.00;;;;;;5065440;28;20225;-83
2022/12/14 10:43:29;;;;;;;32.45;17.25;;;-3.50;1.00;;;;;;5068117;28;20222;-81
2022/12/14 10:49:22;;;;;;;42.35;18.65;;;-3.40;99.90;;;;;;5066444;28;20230;-84
2022/12/14 10:51:52;;;;;;;21.17;12.88;;;-3.40;1.00;;;;;;5067192;28;20250;-82
2022/12/14 10:54:28;;;;;;;23.23;15.55;;;-3.70;1.00;;;;;;5068325;28;20307;-83
2022/12/14 10:56:56;;;;;;;29.73;17.17;;;;;;;;;;5066762;28;20235;-84
2022/12/14 10:59:31;;;;;;;24.95;14.82;;;-3.20;1.00;;;;;;5065020;28;20219;-82
2022/12/14 11:02:04;;;;;;;28.88;15.05;;;-3.30;99.90;;;;;;5067942;28;20221;-84
2022/12/14 11:04:34;;;;;;;28.40;16.55;;;-3.20;99.90;;;;;;5078327;28;20215;-80
2022/12/14 11:07:04;;;;;;;21.48;13.55;;;-3.00;99.90;;;;;;5098999;28;20191;-79
2022/12/14 11:09:32;;;;;;;26.83;18.10;;;;;;;;;;5099788;28;20183;-84
2022/12/14 11:12:01;;;;;;;23.60;14.93;;;-3.50;99.90;;;;;;5098396;28;20254;-80
2022/12/14 11:14:28;;;;;;;24.33;15.40;;;;;;;;;;5095717;28;20254;-82
2022/12/14 11:16:55;;;;;;;30.35;18.10;;;-3.10;1.00;;;;;;5089931;28;20321;-84
2022/12/14 11:19:25;;;;;;;23.67;14.38;;;-3.20;99.90;;;;;;5083728;28;20215;-83
2022/12/14 11:22:07;;;;;;;27.20;16.65;;;-3.20;99.90;;;;;;5084401;28;20218;-83
2022/12/14 11:24:43;;;;;;;30.42;15.98;;;-3.20;1.00;;;;;;5095534;28;20219;-82
2022/12/14 11:27:12;;;;;;;27.00;14.60;;;-3.10;1.00;;;;;;5090662;28;20277;-83
2022/12/14 11:29:40;;;;;;;32.28;15.27;;;-3.10;1.00;;;;;;5087239;28;20289;-83
2022/12/14 11:32:19;;;;;;;19.45;13.63;;;-2.90;1.00;;;;;;5085318;28;20576;-83
2022/12/14 11:34:56;;;;;;;24.35;14.43;;;-3.20;1.00;;;;;;5083721;28;20238;-84
2022/12/14 11:37:25;;;;;;;28.02;16.50;;;-2.90;1.00;;;;;;5084482;28;20306;-83
2022/12/14 11:39:55;;;;;;;21.83;13.77;;;-3.10;1.00;;;;;;5084481;28;20226;-84
2022/12/14 11:42:22;;;;;;;30.48;16.60;;;-3.20;1.00;;;;;;5087790;28;20273;-83
2022/12/14 11:44:54;;;;;;;23.63;14.45;;;-3.10;1.00;;;;;;5094847;28;20599;-83
2022/12/14 11:47:22;;;;;;;26.95;15.15;;;-3.10;1.00;;;;;;5096670;28;20209;-83
2022/12/14 11:49:54;;;;;;;22.98;14.32;;;-3.10;1.00;;;;;;5095429;28;20258;-85
2022/12/14 11:52:23;;;;;;;27.48;14.93;;;-2.80;1.00;;;;;;5098023;28;20188;-84
2022/12/14 11:55:09;;;;;;;20.85;14.20;;;-2.80;1.00;;;;;;5098685;28;20203;-84
2022/12/14 11:57:48;;;;;;;23.27;16.15;;;-2.90;1.00;;;;;;5090525;28;20189;-85
2022/12/14 12:00:25;;;;;;;20.08;13.93;;;-2.80;1.00;;;;;;5086890;28;20258;-84
2022/12/14 12:02:59;;;;;;;22.85;14.07;;;-2.50;1.00;;;;;;5084689;28;20759;-84
2022/12/14 12:06:07;;;;;;;28.70;16.95;;;-2.80;99.90;;;;;;5084380;28;20225;-85
2022/12/14 12:09:08;;;;;;;28.67;19.48;;;;;;;;;;5089113;28;20199;-84
2022/12/14 12:12:09;;;;;;;27.63;16.17;;;;;;;;;;5090982;28;20212;-81
2022/12/14 12:14:54;;;;;;;23.45;13.57;;;;;;;;;;5095149;28;20229;-84
2022/12/14 12:23:57;;;;;;;29.08;16.75;;;-2.50;99.90;;;;;;4996876;28;20217;-78
2022/12/14 12:26:30;;;;;;;25.40;15.10;;;-2.70;99.90;;;;;;5092922;28;20191;-85
2022/12/14 12:29:08;;;;;;;25.55;15.98;;;-2.60;99.90;;;;;;5090522;28;20276;-85
2022/12/14 12:31:48;;;;;;;38.67;22.33;;;-2.60;99.90;;;;;;5084851;28;20191;-84
2022/12/14 12:42:14;;;;;;;;;;;;;;;;;;;;;
2022/12/14 12:48:26;;;;;;;30.42;16.98;;;-2.90;99.90;;;;;;5010071;28;20582;-83
2022/12/14 13:26:21;;;;;;;22.23;12.95;;;-2.90;67.20;;;;;;5082516;28;20237;-87
2022/12/14 13:35:18;;;;;;;24.10;15.32;;;-2.90;99.90;;;;;;5088215;28;20248;-87
2022/12/14 13:52:00;;;;;;;24.95;15.75;;;-3.00;45.90;;;;;;4998157;28;20194;-87
2022/12/14 13:54:39;;;;;;;24.42;13.95;;;-3.00;99.90;;;;;;5007561;28;20268;-86
2022/12/14 13:57:17;;;;;;;22.77;14.57;;;-3.00;99.90;;;;;;5082010;28;20210;-86
2022/12/14 14:02:53;;;;;;;21.00;13.07;;;;;;;;;;5078653;28;20319;-88
2022/12/14 14:05:45;;;;;;;22.70;14.23;;;-3.10;1.00;;;;;;5078569;28;20274;-88
2022/12/14 14:08:39;;;;;;;21.27;14.35;;;-3.10;1.00;;;;;;5079377;28;20312;-87
2022/12/14 14:11:57;;;;;;;21.95;13.25;;;-3.10;1.00;;;;;;5079376;28;20198;-88
2022/12/14 14:14:49;;;;;;;20.50;12.70;;;-3.20;1.00;;;;;;5076369;28;20199;-88
2022/12/14 14:17:31;;;;;;;23.80;15.23;;;-3.30;1.00;;;;;;5081795;28;20635;-87
2022/12/14 14:20:27;;;;;;;27.52;14.32;;;-3.30;99.90;;;;;;5081410;28;20356;-88
2022/12/14 14:23:28;;;;;;;23.83;13.15;;;-3.30;99.90;;;;;;5081911;28;20214;-87
2022/12/14 14:26:21;;;;;;;29.05;15.30;;;-3.30;1.00;;;;;;5081609;28;20232;-87
2022/12/14 14:29:04;;;;;;;26.08;15.10;;;-3.40;99.90;;;;;;5081662;28;20231;-87
2022/12/14 14:31:45;;;;;;;16.38;13.02;;;-3.50;99.90;;;;;;5081462;28;20530;-87
2022/12/14 14:34:18;;;;;;;21.98;13.90;;;-3.50;99.90;;;;;;5080337;28;20235;-87
2022/12/14 14:37:08;;;;;;;19.63;13.52;;;-3.50;99.90;;;;;;5081320;28;20226;-85
2022/12/14 14:39:45;;;;;;;26.17;14.88;;;;;;;;;;5080876;28;20242;-87
2022/12/14 14:42:27;;;;;;;25.00;14.20;;;-3.40;99.90;;;;;;5082040;28;20273;-87
2022/12/14 14:45:14;;;;;;;28.63;15.55;;;-3.50;99.90;;;;;;5082211;28;20198;-87
2022/12/14 14:47:46;;;;;;;40.17;15.50;;;-3.60;99.90;;;;;;5078732;28;20293;-87
2022/12/14 14:50:23;;;;;;;33.47;15.98;;;-3.60;1.00;;;;;;5081349;28;20207;-87
2022/12/14 14:56:47;;;;;;;24.25;14.80;;;-3.50;29.50;;;;;;5011510;28;20194;-87
2022/12/14 14:59:59;;;;;;;29.15;15.45;;;-3.50;81.30;;;;;;5082394;28;20333;-88
2022/12/14 15:02:35;;;;;;;25.40;14.38;;;;;;;;;;5080240;28;20256;-88
2022/12/14 15:05:04;;;;;;;29.73;16.38;;;-3.60;99.90;;;;;;5077745;28;20199;-88
2022/12/14 15:07:41;;;;;;;30.60;16.63;;;;;;;;;;5077637;28;20703;-87
2022/12/14 15:10:24;;;;;;;36.88;17.83;;;-3.60;1.00;;;;;;5078974;28;20204;-88
2022/12/14 15:13:24;;;;;;;34.42;17.45;;;-3.70;1.00;;;;;;5081373;28;20201;-88
2022/12/14 15:16:05;;;;;;;27.60;15.98;;;;;;;;;;5081182;28;20190;-88
2022/12/14 15:18:38;;;;;;;35.63;16.35;;;;;;;;;;5086175;28;20289;-88
2022/12/14 15:21:40;;;;;;;31.08;17.25;;;;;;;;;;5092103;28;20214;-87
2022/12/14 15:27:39;;;;;;;31.48;16.60;;;-3.60;1.00;;;;;;5084244;28;20264;-87
2022/12/14 15:33:40;;;;;;;30.70;18.23;;;;;;;;;;5094673;28;20214;-89
2022/12/14 15:39:38;;;;;;;33.38;16.70;;;-3.60;1.00;;;;;;5082965;28;20209;-88
2022/12/14 15:42:25;;;;;;;32.10;16.98;;;-3.70;1.00;;;;;;5100225;28;20246;-85
2022/12/14 15:45:26;;;;;;;26.52;16.23;;;;;;;;;;5093739;28;20218;-87
2022/12/14 15:48:10;;;;;;;32.60;17.85;;;;;;;;;;5094590;28;20266;-88
2022/12/14 15:50:44;;;;;;;35.70;18.73;;;;;;;;;;5092897;28;20216;-88
2022/12/14 15:53:39;;;;;;;28.52;17.30;;;-3.70;46.60;;;;;;5089383;28;20228;-87
2022/12/14 15:59:23;;;;;;;35.03;20.60;;;-3.80;6.80;;;;;;5087344;28;20302;-88
2022/12/14 16:02:13;;;;;;;42.45;18.60;;;-3.80;1.00;;;;;;5086280;28;20225;-88
2022/12/14 16:04:41;;;;;;;28.63;17.60;;;;;;;;;;5086578;28;20226;-88
2022/12/14 16:07:22;;;;;;;30.52;17.15;;;-3.80;59.20;;;;;;5085543;28;20587;-88
2022/12/14 16:12:36;;;;;;;27.52;18.27;;;-3.90;1.00;;;;;;5106480;28;20218;-88
2022/12/14 16:18:29;;;;;;;34.33;18.90;;;-4.00;99.90;;;;;;5099029;28;20205;-86
2022/12/14 16:21:02;;;;;;;37.17;20.27;;;-4.00;1.00;;;;;;5100257;28;20186;-87
2022/12/14 16:26:25;;;;;;;42.05;20.90;;;-4.00;1.00;;;;;;5102626;28;20216;-90
2022/12/14 16:29:20;;;;;;;35.15;20.02;;;-4.10;99.90;;;;;;5111539;28;20217;-90
2022/12/14 16:31:47;;;;;;;47.67;25.25;;;;;;;;;;5108344;28;20198;-90
2022/12/14 16:34:17;;;;;;;32.30;20.65;;;-4.20;99.90;;;;;;5113086;28;20225;-90
2022/12/14 16:36:45;;;;;;;42.40;23.63;;;-4.20;1.00;;;;;;5116110;28;20174;-90
2022/12/14 16:39:21;;;;;;;42.65;20.17;;;-4.10;1.00;;;;;;5115780;28;20206;-92
2022/12/14 16:41:57;;;;;;;41.08;23.02;;;;;;;;;;5097513;28;20197;-91
2022/12/14 16:44:36;;;;;;;45.33;24.50;;;-4.20;99.90;;;;;;5103307;28;20232;-90
2022/12/14 16:47:27;;;;;;;37.92;22.67;;;-4.30;1.00;;;;;;5106197;28;20592;-90
2022/12/14 16:49:56;;;;;;;46.08;23.05;;;-4.30;1.00;;;;;;5093252;28;20206;-89
2022/12/14 16:52:27;;;;;;;41.25;21.17;;;-4.30;1.00;;;;;;5103820;28;20197;-89
2022/12/14 16:55:09;;;;;;;34.00;22.33;;;-4.30;99.90;;;;;;5104577;28;20309;-90
2022/12/14 16:57:39;;;;;;;35.83;21.33;;;-4.30;1.00;;;;;;5112893;28;20205;-90
2022/12/14 17:00:21;;;;;;;36.97;20.25;;;-4.30;99.90;;;;;;5116600;28;20201;-91
2022/12/14 17:02:55;;;;;;;34.17;21.25;;;-4.40;1.00;;;;;;5107761;28;20186;-91
2022/12/14 17:05:31;;;;;;;35.22;20.67;;;-4.50;99.90;;;;;;5113867;28;20218;-90
2022/12/14 17:07:59;;;;;;;40.25;20.48;;;;;;;;;;5105545;28;20557;-90
2022/12/14 17:10:29;;;;;;;47.50;26.10;;;;;;;;;;5105441;28;20202;-90
2022/12/14 17:12:57;;;;;;;40.55;23.38;;;-4.50;99.90;;;;;;5111140;28;20183;-90
2022/12/14 17:15:30;;;;;;;41.63;22.45;;;-4.50;1.00;;;;;;5115734;28;20209;-91
2022/12/14 17:18:03;;;;;;;37.53;23.25;;;-4.50;99.90;;;;;;5114493;28;20190;-91
2022/12/14 17:20:35;;;;;;;42.35;21.85;;;-4.50;1.00;;;;;;5105624;28;20228;-92
2022/12/14 17:23:02;;;;;;;39.60;23.08;;;;;;;;;;5102289;28;20266;-91
2022/12/14 17:25:31;;;;;;;40.53;23.20;;;-4.40;1.00;;;;;;5102848;28;20641;-90